createdAt,value
2019-04-22T00:05:12.242Z,33.19
2019-04-22T00:10:34.955Z,33.87
2019-04-22T00:15:32.563Z,35.46
2019-04-22T00:25:55.930Z,35.68
2019-04-22T00:30:56.103Z,36.73
2019-04-22T00:36:14.983Z,39.02
2019-04-22T00:41:24.708Z,37.91
2019-04-22T00:46:23.910Z,37.52
2019-04-22T00:56:32.613Z,40.01
2019-04-22T01:01:44.828Z,38.28
2019-04-22T01:06:55.612Z,37.85
2019-04-22T01:12:05.685Z,39.01
2019-04-22T01:22:06.823Z,39.96
2019-04-22T01:27:11.502Z,42.93
2019-04-22T01:32:10.833Z,40.13
2019-04-22T01:37:32.892Z,40.97
2019-04-22T01:42:48.547Z,41.50
2019-04-22T01:57:59.906Z,43.74
2019-04-22T02:03:04.178Z,41.96
2019-04-22T02:08:29.502Z,43.97
2019-04-22T02:13:30.730Z,42.47
2019-04-22T02:18:38.185Z,42.00
2019-04-22T02:23:47.043Z,40.62
2019-04-22T02:28:51.795Z,40.20
2019-04-22T02:34:09.286Z,40.64
2019-04-22T02:39:12.193Z,39.94
2019-04-22T02:44:14.021Z,39.12
2019-04-22T02:54:44.688Z,40.23
2019-04-22T02:59:21.995Z,41.81
2019-04-22T03:04:35.265Z,42.86
2019-04-22T03:09:38.518Z,45.12
2019-04-22T03:14:53.546Z,45.43
2019-04-22T03:20:06.212Z,46.43
2019-04-22T03:25:42.756Z,45.99
2019-04-22T03:30:51.145Z,46.27
2019-04-22T03:35:49.718Z,45.80
2019-04-22T03:45:31.848Z,45.96
2019-04-22T03:50:39.018Z,45.18
2019-04-22T03:55:43.372Z,45.81
2019-04-22T04:11:06.974Z,42.66
2019-04-22T04:16:12.919Z,45.04
2019-04-22T04:21:37.622Z,41.75
2019-04-22T04:31:59.019Z,43.72
2019-04-22T04:42:18.269Z,42.70
2019-04-22T04:47:17.693Z,40.15
2019-04-22T04:52:30.934Z,39.12
2019-04-22T04:57:16.963Z,38.46
2019-04-22T05:02:37.870Z,38.69
2019-04-22T05:07:44.213Z,38.33
2019-04-22T05:17:47.319Z,35.88
2019-04-22T05:28:04.029Z,33.43
2019-04-22T05:33:02.995Z,33.74
2019-04-22T05:38:22.156Z,34.06
2019-04-22T05:43:22.719Z,32.94
2019-04-22T05:48:36.917Z,29.90
2019-04-22T05:53:30.909Z,29.14
2019-04-22T05:58:45.196Z,30.31
2019-04-22T06:19:14.066Z,26.32
2019-04-22T06:24:21.555Z,24.20
2019-04-22T06:29:25.046Z,23.51
2019-04-22T06:39:36.929Z,22.95
2019-04-22T06:44:50.010Z,22.84
2019-04-22T06:49:56.960Z,22.33
2019-04-22T07:00:13.644Z,21.92
2019-04-22T07:05:14.388Z,22.26
2019-04-22T07:20:41.646Z,19.58
2019-04-22T07:25:47.998Z,18.52
2019-04-22T07:30:53.037Z,18.10
2019-04-22T07:46:13.699Z,15.99
2019-04-22T07:51:21.552Z,15.77
2019-04-22T07:56:27.903Z,15.09
2019-04-22T08:01:26.698Z,15.64
2019-04-22T08:06:38.520Z,15.69
2019-04-22T08:16:51.831Z,14.57
2019-04-22T08:27:11.396Z,13.68
2019-04-22T08:32:15.568Z,12.97
2019-04-22T08:37:41.896Z,12.65
2019-04-22T08:42:43.416Z,11.85
2019-04-22T08:47:42.389Z,11.49
2019-04-22T08:52:51.292Z,11.46
2019-04-22T08:58:03.690Z,11.38
2019-04-22T09:03:08.825Z,12.15
2019-04-22T09:08:14.216Z,10.74
2019-04-22T09:13:13.834Z,10.43
2019-04-22T09:18:17.979Z,10.03
2019-04-22T09:23:37.118Z,9.73
2019-04-22T09:33:43.190Z,9.55
2019-04-22T09:38:41.040Z,8.42
2019-04-22T09:43:52.143Z,8.79
2019-04-22T09:49:12.188Z,7.29
2019-04-22T09:54:22.035Z,6.94
2019-04-22T09:59:20.692Z,6.85
2019-04-22T10:04:18.802Z,6.88
2019-04-22T10:09:52.862Z,6.83
2019-04-22T10:14:45.445Z,5.89
2019-04-22T10:19:48.002Z,6.22
2019-04-22T10:24:57.093Z,5.97
2019-04-22T10:34:55.523Z,6.51
2019-04-22T10:39:59.300Z,6.33
2019-04-22T10:45:01.957Z,6.91
2019-04-22T10:50:10.309Z,6.79
2019-04-22T10:55:17.287Z,7.02
2019-04-22T11:00:23.904Z,6.61
2019-04-22T11:05:32.346Z,6.65
2019-04-22T11:10:54.224Z,6.94
2019-04-22T11:15:46.743Z,6.51
2019-04-22T11:20:53.582Z,6.42
2019-04-22T11:26:01.685Z,6.33
2019-04-22T11:31:08.198Z,5.96
2019-04-22T11:36:15.772Z,6.11
2019-04-22T11:41:21.905Z,6.02
2019-04-22T11:46:29.740Z,6.03
2019-04-22T11:51:38.096Z,5.71
2019-04-22T11:56:45.201Z,6.22
2019-04-22T12:01:52.960Z,5.74
2019-04-22T12:07:00.138Z,6.23
2019-04-22T12:12:07.447Z,5.84
2019-04-22T12:17:13.946Z,5.94
2019-04-22T12:22:22.953Z,5.94
2019-04-22T12:27:29.924Z,6.53
2019-04-22T12:32:35.924Z,6.35
2019-04-22T12:37:49.951Z,6.23
2019-04-22T12:42:51.394Z,5.81
2019-04-22T12:47:58.037Z,5.87
2019-04-22T12:53:10.877Z,6.04
2019-04-22T12:58:13.869Z,6.13
2019-04-22T13:03:20.406Z,6.25
2019-04-22T13:08:27.603Z,6.07
2019-04-22T13:13:34.621Z,6.26
2019-04-22T13:18:47.308Z,5.64
2019-04-22T13:23:48.898Z,5.63
2019-04-22T13:28:56.953Z,5.80
2019-04-22T13:34:04.072Z,5.50
2019-04-22T13:39:11.319Z,5.15
2019-04-22T13:44:18.903Z,5.30
2019-04-22T13:49:59.733Z,5.26
2019-04-22T13:54:58.694Z,5.32
2019-04-22T13:59:44.594Z,5.38
2019-04-22T14:04:48.353Z,5.84
2019-04-22T14:09:55.980Z,5.42
2019-04-22T14:15:02.333Z,4.95
2019-04-22T14:20:09.061Z,5.30
2019-04-22T14:25:16.672Z,5.28
2019-04-22T14:30:24.518Z,5.23
2019-04-22T14:35:31.339Z,4.97
2019-04-22T14:40:40.912Z,4.79
2019-04-22T14:51:13.151Z,5.04
2019-04-22T14:56:02.134Z,4.95
2019-04-22T15:01:08.609Z,4.73
2019-04-22T15:06:15.837Z,4.81
2019-04-22T15:11:23.237Z,4.76
2019-04-22T15:16:29.892Z,4.84
2019-04-22T15:21:36.778Z,4.85
2019-04-22T15:26:44.582Z,4.80
2019-04-22T15:31:53.372Z,5.18
2019-04-22T15:37:00.022Z,5.01
2019-04-22T15:42:14.568Z,5.22
2019-04-22T15:47:15.190Z,5.40
2019-04-22T15:52:28.204Z,5.24
2019-04-22T15:57:29.003Z,4.84
2019-04-22T16:02:37.442Z,5.15
2019-04-22T16:07:43.928Z,5.04
2019-04-22T16:12:58.906Z,5.08
2019-04-22T16:18:01.607Z,5.31
2019-04-22T16:23:05.704Z,5.64
2019-04-22T16:28:13.304Z,6.96
2019-04-22T16:33:21.658Z,5.24
2019-04-22T16:38:28.862Z,4.99
2019-04-22T16:43:36.500Z,5.11
2019-04-22T16:48:43.388Z,4.86
2019-04-22T16:53:50.769Z,6.58
2019-04-22T16:58:56.919Z,6.71
2019-04-22T17:04:04.878Z,6.52
2019-04-22T17:09:14.175Z,6.72
2019-04-22T17:14:29.564Z,6.27
2019-04-22T17:19:27.008Z,6.57
2019-04-22T17:24:33.253Z,6.31
2019-04-22T17:29:41.111Z,6.14
2019-04-22T17:34:49.683Z,6.07
2019-04-22T17:40:09.809Z,5.85
2019-04-22T17:45:26.000Z,5.63
2019-04-22T17:50:28.564Z,5.86
2019-04-22T17:55:46.785Z,5.87
2019-04-22T18:00:39.873Z,5.71
2019-04-22T18:05:37.333Z,5.56
2019-04-22T18:10:58.651Z,5.17
2019-04-22T18:16:08.121Z,5.03
2019-04-22T18:21:08.895Z,5.13
2019-04-22T18:26:23.033Z,4.69
2019-04-22T18:31:26.277Z,4.76
2019-04-22T18:36:30.593Z,4.92
2019-04-22T18:41:43.955Z,4.69
2019-04-22T18:46:47.798Z,4.40
2019-04-22T18:57:02.561Z,4.21
2019-04-22T19:01:53.616Z,4.36
2019-04-22T19:07:16.888Z,4.11
2019-04-22T19:12:33.758Z,4.34
2019-04-22T19:17:33.929Z,4.09
2019-04-22T19:22:43.825Z,4.05
2019-04-22T19:27:43.443Z,4.11
2019-04-22T19:33:00.706Z,4.04
2019-04-22T19:37:57.671Z,4.09
2019-04-22T19:43:08.999Z,4.24
2019-04-22T19:48:28.304Z,4.16
2019-04-22T19:53:29.718Z,4.21
2019-04-22T19:58:25.819Z,4.60
2019-04-22T20:03:44.229Z,4.35
2019-04-22T20:08:51.026Z,4.40
2019-04-22T20:13:56.822Z,4.83
2019-04-22T20:23:57.388Z,4.91
2019-04-22T20:29:24.361Z,4.96
2019-04-22T20:34:26.477Z,4.50
2019-04-22T20:39:33.502Z,4.94
2019-04-22T20:44:39.620Z,4.61
2019-04-22T20:54:49.347Z,4.86
2019-04-22T20:59:55.877Z,5.10
2019-04-22T21:04:54.687Z,5.42
2019-04-22T21:10:09.083Z,6.37
2019-04-22T21:20:31.797Z,5.79
2019-04-22T21:25:24.220Z,5.93
2019-04-22T21:30:37.670Z,5.82
2019-04-22T21:36:03.103Z,5.87
2019-04-22T21:40:54.833Z,5.61
2019-04-22T21:46:03.599Z,5.65
2019-04-22T21:51:16.516Z,5.60
2019-04-22T21:56:38.241Z,4.81
2019-04-22T22:01:38.128Z,5.09
2019-04-22T22:06:25.911Z,4.77
2019-04-22T22:11:39.696Z,5.14
2019-04-22T22:16:38.364Z,4.99
2019-04-22T22:22:03.580Z,5.23
2019-04-22T22:27:04.864Z,4.87
2019-04-22T22:32:06.511Z,4.85
2019-04-22T22:42:03.717Z,4.85
2019-04-22T22:47:30.455Z,4.96
2019-04-22T22:52:51.687Z,4.53
2019-04-22T22:57:44.537Z,4.67
2019-04-22T23:03:12.517Z,4.95
2019-04-22T23:08:02.088Z,4.73
2019-04-22T23:17:54.155Z,4.48
2019-04-22T23:23:21.996Z,4.56
2019-04-22T23:28:22.113Z,4.54
2019-04-22T23:33:27.729Z,4.54
2019-04-22T23:38:42.824Z,4.81
2019-04-22T23:43:48.602Z,4.58
2019-04-22T23:48:51.940Z,4.85
2019-04-22T23:54:09.073Z,4.52
2019-04-22T23:59:14.732Z,4.39
